sensor_id;sensor_type;location;lat;lon;timestamp;pressure;altitude;pressure_sealevel;temperature;humidity
56600;BME280;51832;48.152;11.530;2022-08-20T00:01:28;95392.47;;;19.49;83.46
56600;BME280;51832;48.152;11.530;2022-08-20T00:06:28;95375.44;;;19.74;82.50
56600;BME280;51832;48.152;11.530;2022-08-20T00:11:29;95379.66;;;19.46;83.25
56600;BME280;51832;48.152;11.530;2022-08-20T00:16:32;95391.22;;;19.71;83.02
56600;BME280;51832;48.152;11.530;2022-08-20T00:21:34;95389.00;;;19.49;83.73
56600;BME280;51832;48.152;11.530;2022-08-20T00:26:35;95383.91;;;19.52;83.64
56600;BME280;51832;48.152;11.530;2022-08-20T00:31:36;95388.53;;;19.37;83.93
56600;BME280;51832;48.152;11.530;2022-08-20T00:36:36;95383.59;;;19.59;83.05
56600;BME280;51832;48.152;11.530;2022-08-20T00:41:36;95402.78;;;19.22;84.69
56600;BME280;51832;48.152;11.530;2022-08-20T00:46:38;95395.94;;;19.45;83.19
56600;BME280;51832;48.152;11.530;2022-08-20T00:51:43;95390.53;;;19.55;83.03
56600;BME280;51832;48.152;11.530;2022-08-20T00:56:47;95421.19;;;19.24;83.76
56600;BME280;51832;48.152;11.530;2022-08-20T01:01:49;95408.66;;;19.19;84.26
56600;BME280;51832;48.152;11.530;2022-08-20T01:06:51;95401.31;;;19.40;83.69
56600;BME280;51832;48.152;11.530;2022-08-20T01:11:53;95392.47;;;19.49;83.52
56600;BME280;51832;48.152;11.530;2022-08-20T01:16:58;95398.34;;;19.41;83.88
56600;BME280;51832;48.152;11.530;2022-08-20T01:21:59;95381.25;;;19.52;83.39
56600;BME280;51832;48.152;11.530;2022-08-20T01:27:22;95400.22;;;19.80;82.39
56600;BME280;51832;48.152;11.530;2022-08-20T01:32:23;95399.88;;;19.58;83.59
56600;BME280;51832;48.152;11.530;2022-08-20T01:37:24;95401.00;;;19.51;83.93
56600;BME280;51832;48.152;11.530;2022-08-20T01:42:31;95399.41;;;19.45;84.00
56600;BME280;51832;48.152;11.530;2022-08-20T01:47:36;95407.06;;;19.57;84.28
56600;BME280;51832;48.152;11.530;2022-08-20T01:57:50;95404.19;;;19.48;85.44
56600;BME280;51832;48.152;11.530;2022-08-20T02:02:50;95415.94;;;19.47;85.38
56600;BME280;51832;48.152;11.530;2022-08-20T02:07:51;95404.78;;;19.40;85.86
56600;BME280;51832;48.152;11.530;2022-08-20T02:12:51;95424.38;;;19.65;84.84
56600;BME280;51832;48.152;11.530;2022-08-20T02:17:52;95422.53;;;19.60;85.20
56600;BME280;51832;48.152;11.530;2022-08-20T02:22:55;95420.00;;;19.40;86.23
56600;BME280;51832;48.152;11.530;2022-08-20T02:27:56;95434.09;;;19.45;85.67
56600;BME280;51832;48.152;11.530;2022-08-20T02:33:01;95432.34;;;19.70;84.97
56600;BME280;51832;48.152;11.530;2022-08-20T02:38:03;95432.69;;;19.14;86.96
56600;BME280;51832;48.152;11.530;2022-08-20T02:43:03;95418.63;;;19.42;86.13
56600;BME280;51832;48.152;11.530;2022-08-20T02:48:04;95427.53;;;19.28;86.28
56600;BME280;51832;48.152;11.530;2022-08-20T02:53:04;95432.66;;;19.24;86.77
56600;BME280;51832;48.152;11.530;2022-08-20T02:58:05;95432.56;;;19.34;86.63
56600;BME280;51832;48.152;11.530;2022-08-20T03:03:07;95432.06;;;19.27;86.62
56600;BME280;51832;48.152;11.530;2022-08-20T03:08:10;95434.84;;;19.56;85.80
56600;BME280;51832;48.152;11.530;2022-08-20T03:13:12;95427.09;;;19.60;85.47
56600;BME280;51832;48.152;11.530;2022-08-20T03:18:14;95437.09;;;19.34;86.52
56600;BME280;51832;48.152;11.530;2022-08-20T03:23:16;95439.16;;;19.52;85.35
56600;BME280;51832;48.152;11.530;2022-08-20T03:28:17;95436.59;;;19.32;86.64
56600;BME280;51832;48.152;11.530;2022-08-20T03:33:19;95448.97;;;19.62;84.86
56600;BME280;51832;48.152;11.530;2022-08-20T03:38:22;95447.44;;;19.50;85.55
56600;BME280;51832;48.152;11.530;2022-08-20T03:43:22;95447.50;;;19.40;85.75
56600;BME280;51832;48.152;11.530;2022-08-20T03:48:23;95447.19;;;19.42;86.07
56600;BME280;51832;48.152;11.530;2022-08-20T03:53:24;95450.59;;;19.58;85.34
56600;BME280;51832;48.152;11.530;2022-08-20T03:58:26;95465.13;;;19.31;86.16
56600;BME280;51832;48.152;11.530;2022-08-20T04:03:27;95472.25;;;19.51;85.55
56600;BME280;51832;48.152;11.530;2022-08-20T04:08:28;95467.28;;;19.29;86.83
56600;BME280;51832;48.152;11.530;2022-08-20T04:13:29;95457.94;;;19.32;87.03
56600;BME280;51832;48.152;11.530;2022-08-20T04:18:30;95473.31;;;19.45;85.46
56600;BME280;51832;48.152;11.530;2022-08-20T04:23:31;95466.75;;;19.27;86.91
56600;BME280;51832;48.152;11.530;2022-08-20T04:28:31;95474.38;;;19.54;85.14
56600;BME280;51832;48.152;11.530;2022-08-20T04:33:32;95470.25;;;19.23;86.50
56600;BME280;51832;48.152;11.530;2022-08-20T04:38:34;95491.66;;;19.07;87.08
56600;BME280;51832;48.152;11.530;2022-08-20T04:43:35;95489.53;;;19.64;84.82
56600;BME280;51832;48.152;11.530;2022-08-20T04:48:38;95491.66;;;19.62;84.31
56600;BME280;51832;48.152;11.530;2022-08-20T04:53:40;95493.78;;;19.65;84.42
56600;BME280;51832;48.152;11.530;2022-08-20T04:58:42;95489.19;;;19.26;86.24
56600;BME280;51832;48.152;11.530;2022-08-20T05:03:46;95487.53;;;19.35;85.90
56600;BME280;51832;48.152;11.530;2022-08-20T05:08:47;95490.53;;;19.18;87.12
56600;BME280;51832;48.152;11.530;2022-08-20T05:13:48;95496.78;;;18.99;87.58
56600;BME280;51832;48.152;11.530;2022-08-20T05:18:49;95496.94;;;19.23;86.10
56600;BME280;51832;48.152;11.530;2022-08-20T05:23:51;95506.41;;;19.54;85.21
56600;BME280;51832;48.152;11.530;2022-08-20T05:28:51;95513.06;;;19.46;85.32
56600;BME280;51832;48.152;11.530;2022-08-20T05:33:52;95517.41;;;19.32;86.12
56600;BME280;51832;48.152;11.530;2022-08-20T05:38:54;95529.69;;;19.82;83.78
56600;BME280;51832;48.152;11.530;2022-08-20T05:43:56;95518.53;;;19.75;83.97
56600;BME280;51832;48.152;11.530;2022-08-20T05:48:58;95524.03;;;19.50;85.55
56600;BME280;51832;48.152;11.530;2022-08-20T05:54:00;95523.81;;;19.85;83.97
56600;BME280;51832;48.152;11.530;2022-08-20T05:59:01;95530.75;;;19.86;84.18
56600;BME280;51832;48.152;11.530;2022-08-20T06:04:05;95536.97;;;19.72;84.58
56600;BME280;51832;48.152;11.530;2022-08-20T06:09:28;95532.16;;;19.74;84.36
56600;BME280;51832;48.152;11.530;2022-08-20T06:14:28;95534.75;;;19.84;83.58
56600;BME280;51832;48.152;11.530;2022-08-20T06:19:29;95541.34;;;20.31;82.04
56600;BME280;51832;48.152;11.530;2022-08-20T06:24:30;95544.84;;;20.26;82.01
56600;BME280;51832;48.152;11.530;2022-08-20T06:29:31;95551.09;;;20.16;82.08
56600;BME280;51832;48.152;11.530;2022-08-20T06:34:34;95561.00;;;20.11;82.02
56600;BME280;51832;48.152;11.530;2022-08-20T06:39:35;95546.22;;;20.23;81.51
56600;BME280;51832;48.152;11.530;2022-08-20T06:44:36;95545.59;;;20.37;81.14
56600;BME280;51832;48.152;11.530;2022-08-20T06:49:36;95554.59;;;19.73;83.92
56600;BME280;51832;48.152;11.530;2022-08-20T06:54:37;95553.00;;;20.11;82.44
56600;BME280;51832;48.152;11.530;2022-08-20T06:59:37;95568.38;;;20.24;81.27
56600;BME280;51832;48.152;11.530;2022-08-20T07:04:37;95565.72;;;20.58;80.49
56600;BME280;51832;48.152;11.530;2022-08-20T07:09:38;95562.00;;;20.54;80.38
56600;BME280;51832;48.152;11.530;2022-08-20T07:14:38;95574.06;;;20.51;80.44
56600;BME280;51832;48.152;11.530;2022-08-20T07:19:39;95574.03;;;20.56;80.18
56600;BME280;51832;48.152;11.530;2022-08-20T07:24:39;95567.63;;;20.52;80.18
56600;BME280;51832;48.152;11.530;2022-08-20T07:29:39;95569.72;;;20.89;79.09
56600;BME280;51832;48.152;11.530;2022-08-20T07:34:59;95572.94;;;20.86;78.80
56600;BME280;51832;48.152;11.530;2022-08-20T07:40:00;95574.94;;;20.76;79.20
56600;BME280;51832;48.152;11.530;2022-08-20T07:45:00;95582.75;;;20.67;79.07
56600;BME280;51832;48.152;11.530;2022-08-20T07:50:02;95584.88;;;20.70;79.26
56600;BME280;51832;48.152;11.530;2022-08-20T07:55:06;95593.19;;;20.92;78.86
56600;BME280;51832;48.152;11.530;2022-08-20T08:00:08;95591.56;;;20.97;78.46
56600;BME280;51832;48.152;11.530;2022-08-20T08:05:09;95593.59;;;21.05;77.62
56600;BME280;51832;48.152;11.530;2022-08-20T08:10:14;95605.31;;;20.56;78.37
56600;BME280;51832;48.152;11.530;2022-08-20T08:15:18;95615.22;;;20.50;78.08
56600;BME280;51832;48.152;11.530;2022-08-20T08:20:21;95604.41;;;20.66;78.30
56600;BME280;51832;48.152;11.530;2022-08-20T08:25:22;95605.06;;;20.81;77.07
56600;BME280;51832;48.152;11.530;2022-08-20T08:30:23;95606.06;;;20.62;78.21
56600;BME280;51832;48.152;11.530;2022-08-20T08:35:24;95615.22;;;20.84;77.00
56600;BME280;51832;48.152;11.530;2022-08-20T08:40:25;95624.28;;;20.60;78.43
56600;BME280;51832;48.152;11.530;2022-08-20T08:45:36;95620.16;;;20.72;77.99
56600;BME280;51832;48.152;11.530;2022-08-20T08:50:40;95621.19;;;20.76;78.02
56600;BME280;51832;48.152;11.530;2022-08-20T08:55:42;95625.13;;;20.84;78.13
56600;BME280;51832;48.152;11.530;2022-08-20T09:00:42;95628.84;;;20.88;77.96
56600;BME280;51832;48.152;11.530;2022-08-20T09:05:48;95624.31;;;21.12;77.08
56600;BME280;51832;48.152;11.530;2022-08-20T09:10:50;95625.81;;;20.94;77.69
56600;BME280;51832;48.152;11.530;2022-08-20T09:15:50;95625.50;;;20.72;77.92
56600;BME280;51832;48.152;11.530;2022-08-20T09:20:51;95629.94;;;21.11;77.21
56600;BME280;51832;48.152;11.530;2022-08-20T09:25:51;95629.84;;;21.21;77.16
56600;BME280;51832;48.152;11.530;2022-08-20T09:30:52;95629.84;;;21.21;76.69
56600;BME280;51832;48.152;11.530;2022-08-20T09:35:53;95633.53;;;21.30;76.73
56600;BME280;51832;48.152;11.530;2022-08-20T09:40:53;95629.16;;;21.34;75.54
56600;BME280;51832;48.152;11.530;2022-08-20T09:45:54;95633.03;;;21.47;76.02
56600;BME280;51832;48.152;11.530;2022-08-20T09:50:54;95618.84;;;21.89;74.84
56600;BME280;51832;48.152;11.530;2022-08-20T09:55:55;95623.41;;;22.12;74.16
56600;BME280;51832;48.152;11.530;2022-08-20T10:01:05;95622.97;;;22.24;73.58
56600;BME280;51832;48.152;11.530;2022-08-20T10:06:07;95625.47;;;22.34;73.08
56600;BME280;51832;48.152;11.530;2022-08-20T10:11:07;95609.63;;;22.19;73.69
56600;BME280;51832;48.152;11.530;2022-08-20T10:16:08;95605.47;;;22.45;72.72
56600;BME280;51832;48.152;11.530;2022-08-20T10:21:12;95617.50;;;22.48;72.50
56600;BME280;51832;48.152;11.530;2022-08-20T10:26:12;95614.34;;;22.59;72.26
56600;BME280;51832;48.152;11.530;2022-08-20T10:31:14;95609.09;;;22.17;72.62
56600;BME280;51832;48.152;11.530;2022-08-20T10:36:16;95617.78;;;22.46;71.66
56600;BME280;51832;48.152;11.530;2022-08-20T10:41:17;95606.13;;;22.69;71.07
56600;BME280;51832;48.152;11.530;2022-08-20T10:46:18;95613.88;;;22.90;71.51
56600;BME280;51832;48.152;11.530;2022-08-20T10:51:19;95619.34;;;22.98;70.94
56600;BME280;51832;48.152;11.530;2022-08-20T10:56:19;95616.88;;;23.02;71.09
56600;BME280;51832;48.152;11.530;2022-08-20T11:01:20;95619.16;;;22.95;71.97
56600;BME280;51832;48.152;11.530;2022-08-20T11:06:20;95618.94;;;22.91;71.54
56600;BME280;51832;48.152;11.530;2022-08-20T11:11:21;95604.75;;;22.40;74.86
56600;BME280;51832;48.152;11.530;2022-08-20T11:16:22;95605.75;;;22.95;73.21
56600;BME280;51832;48.152;11.530;2022-08-20T11:21:22;95602.16;;;23.13;72.97
56600;BME280;51832;48.152;11.530;2022-08-20T11:26:25;95594.22;;;23.08;73.26
56600;BME280;51832;48.152;11.530;2022-08-20T11:31:26;95601.59;;;23.57;71.25
56600;BME280;51832;48.152;11.530;2022-08-20T11:36:29;95580.88;;;23.71;69.73
56600;BME280;51832;48.152;11.530;2022-08-20T11:41:30;95595.53;;;24.15;68.70
56600;BME280;51832;48.152;11.530;2022-08-20T11:46:31;95593.06;;;24.41;66.37
56600;BME280;51832;48.152;11.530;2022-08-20T11:51:34;95592.91;;;24.24;65.93
56600;BME280;51832;48.152;11.530;2022-08-20T11:56:36;95595.00;;;24.27;65.77
56600;BME280;51832;48.152;11.530;2022-08-20T12:01:36;95595.13;;;24.66;64.76
56600;BME280;51832;48.152;11.530;2022-08-20T12:06:37;95595.63;;;24.24;65.08
56600;BME280;51832;48.152;11.530;2022-08-20T12:11:37;95601.00;;;23.33;65.87
56600;BME280;51832;48.152;11.530;2022-08-20T12:16:38;95609.97;;;23.56;65.80
56600;BME280;51832;48.152;11.530;2022-08-20T12:21:39;95604.59;;;23.56;65.09
56600;BME280;51832;48.152;11.530;2022-08-20T12:26:39;95609.38;;;23.59;65.31
56600;BME280;51832;48.152;11.530;2022-08-20T12:31:39;95598.00;;;23.89;65.22
56600;BME280;51832;48.152;11.530;2022-08-20T12:36:40;95592.31;;;23.91;63.99
56600;BME280;51832;48.152;11.530;2022-08-20T12:41:40;95586.69;;;24.01;64.12
56600;BME280;51832;48.152;11.530;2022-08-20T12:46:41;95580.63;;;23.95;64.40
56600;BME280;51832;48.152;11.530;2022-08-20T12:51:41;95580.06;;;24.21;63.63
56600;BME280;51832;48.152;11.530;2022-08-20T12:56:42;95579.41;;;24.15;63.62
56600;BME280;51832;48.152;11.530;2022-08-20T13:01:42;95584.22;;;24.04;64.20
56600;BME280;51832;48.152;11.530;2022-08-20T13:06:43;95585.81;;;23.92;65.42
56600;BME280;51832;48.152;11.530;2022-08-20T13:11:43;95590.97;;;24.02;64.35
56600;BME280;51832;48.152;11.530;2022-08-20T13:16:44;95587.94;;;24.17;63.11
56600;BME280;51832;48.152;11.530;2022-08-20T13:21:44;95584.69;;;23.70;65.71
56600;BME280;51832;48.152;11.530;2022-08-20T13:26:45;95588.88;;;23.49;66.45
56600;BME280;51832;48.152;11.530;2022-08-20T13:31:45;95578.75;;;23.96;66.03
56600;BME280;51832;48.152;11.530;2022-08-20T13:36:46;95573.56;;;24.22;64.19
56600;BME280;51832;48.152;11.530;2022-08-20T13:41:47;95559.88;;;24.46;62.62
56600;BME280;51832;48.152;11.530;2022-08-20T13:46:47;95568.41;;;24.48;62.30
56600;BME280;51832;48.152;11.530;2022-08-20T13:51:48;95561.09;;;24.39;63.38
56600;BME280;51832;48.152;11.530;2022-08-20T13:56:48;95546.59;;;24.49;63.84
56600;BME280;51832;48.152;11.530;2022-08-20T14:01:49;95556.13;;;24.33;64.66
56600;BME280;51832;48.152;11.530;2022-08-20T14:06:49;95558.25;;;23.23;61.90
56600;BME280;51832;48.152;11.530;2022-08-20T14:11:49;95556.00;;;22.84;61.24
56600;BME280;51832;48.152;11.530;2022-08-20T14:16:50;95548.75;;;22.84;62.17
56600;BME280;51832;48.152;11.530;2022-08-20T14:21:50;95563.34;;;22.46;64.86
56600;BME280;51832;48.152;11.530;2022-08-20T14:26:51;95554.22;;;22.79;64.16
56600;BME280;51832;48.152;11.530;2022-08-20T14:31:51;95566.97;;;22.22;68.34
56600;BME280;51832;48.152;11.530;2022-08-20T14:36:52;95562.75;;;21.97;71.63
56600;BME280;51832;48.152;11.530;2022-08-20T14:41:53;95557.19;;;22.45;70.89
56600;BME280;51832;48.152;11.530;2022-08-20T14:46:53;95561.81;;;22.72;68.40
56600;BME280;51832;48.152;11.530;2022-08-20T14:51:53;95574.78;;;22.84;68.49
56600;BME280;51832;48.152;11.530;2022-08-20T14:56:56;95584.47;;;22.66;69.03
56600;BME280;51832;48.152;11.530;2022-08-20T15:01:57;95601.13;;;22.49;70.26
56600;BME280;51832;48.152;11.530;2022-08-20T15:06:59;95626.16;;;22.77;69.64
56600;BME280;51832;48.152;11.530;2022-08-20T15:12:00;95639.31;;;22.22;73.26
56600;BME280;51832;48.152;11.530;2022-08-20T15:17:01;95626.84;;;22.50;72.33
56600;BME280;51832;48.152;11.530;2022-08-20T15:22:01;95661.59;;;21.04;75.38
56600;BME280;51832;48.152;11.530;2022-08-20T15:32:11;95655.81;;;21.20;74.42
56600;BME280;51832;48.152;11.530;2022-08-20T15:37:21;95648.53;;;21.26;73.81
56600;BME280;51832;48.152;11.530;2022-08-20T15:42:22;95655.44;;;21.56;73.93
56600;BME280;51832;48.152;11.530;2022-08-20T15:47:26;95629.66;;;21.60;72.60
56600;BME280;51832;48.152;11.530;2022-08-20T15:52:32;95633.66;;;21.62;72.88
56600;BME280;51832;48.152;11.530;2022-08-20T15:57:48;95626.84;;;21.51;72.90
56600;BME280;51832;48.152;11.530;2022-08-20T16:08:46;95628.97;;;21.31;74.90
56600;BME280;51832;48.152;11.530;2022-08-20T16:13:54;95627.88;;;21.55;74.40
56600;BME280;51832;48.152;11.530;2022-08-20T16:18:55;95622.22;;;21.33;75.25
56600;BME280;51832;48.152;11.530;2022-08-20T16:23:56;95628.34;;;21.10;75.67
56600;BME280;51832;48.152;11.530;2022-08-20T16:29:02;95631.69;;;21.25;75.94
56600;BME280;51832;48.152;11.530;2022-08-20T16:34:30;95638.59;;;21.03;76.62
56600;BME280;51832;48.152;11.530;2022-08-20T16:39:38;95634.31;;;20.73;76.77
56600;BME280;51832;48.152;11.530;2022-08-20T16:44:45;95636.31;;;21.15;75.01
56600;BME280;51832;48.152;11.530;2022-08-20T16:49:57;95642.28;;;21.36;74.28
56600;BME280;51832;48.152;11.530;2022-08-20T16:54:58;95644.16;;;21.59;74.03
56600;BME280;51832;48.152;11.530;2022-08-20T17:00:22;95641.06;;;21.23;74.71
56600;BME280;51832;48.152;11.530;2022-08-20T17:05:41;95655.50;;;21.51;73.87
56600;BME280;51832;48.152;11.530;2022-08-20T17:16:05;95653.41;;;21.19;75.49
56600;BME280;51832;48.152;11.530;2022-08-20T17:21:27;95655.34;;;21.42;74.60
56600;BME280;51832;48.152;11.530;2022-08-20T17:26:33;95661.13;;;21.49;74.23
56600;BME280;51832;48.152;11.530;2022-08-20T17:31:36;95661.22;;;21.63;74.04
56600;BME280;51832;48.152;11.530;2022-08-20T17:36:37;95658.03;;;21.85;73.27
56600;BME280;51832;48.152;11.530;2022-08-20T17:41:49;95659.72;;;21.57;75.02
56600;BME280;51832;48.152;11.530;2022-08-20T17:46:51;95661.94;;;21.50;75.32
56600;BME280;51832;48.152;11.530;2022-08-20T17:51:53;95666.19;;;21.75;75.38
56600;BME280;51832;48.152;11.530;2022-08-20T17:56:59;95664.31;;;21.75;75.29
56600;BME280;51832;48.152;11.530;2022-08-20T18:02:01;95667.22;;;22.21;73.32
56600;BME280;51832;48.152;11.530;2022-08-20T18:23:27;95656.28;;;22.37;72.63
56600;BME280;51832;48.152;11.530;2022-08-20T18:33:38;95668.50;;;22.05;74.33
56600;BME280;51832;48.152;11.530;2022-08-20T18:38:41;95676.50;;;21.62;76.45
56600;BME280;51832;48.152;11.530;2022-08-20T18:43:42;95666.25;;;21.70;76.17
56600;BME280;51832;48.152;11.530;2022-08-20T18:48:58;95670.75;;;21.50;77.13
56600;BME280;51832;48.152;11.530;2022-08-20T18:53:59;95671.72;;;21.59;76.75
56600;BME280;51832;48.152;11.530;2022-08-20T18:59:07;95673.94;;;21.52;77.32
56600;BME280;51832;48.152;11.530;2022-08-20T19:04:26;95677.94;;;21.31;78.04
56600;BME280;51832;48.152;11.530;2022-08-20T19:09:50;95684.53;;;21.62;77.16
56600;BME280;51832;48.152;11.530;2022-08-20T19:14:59;95691.78;;;21.38;78.16
56600;BME280;51832;48.152;11.530;2022-08-20T19:20:04;95699.53;;;21.40;78.17
56600;BME280;51832;48.152;11.530;2022-08-20T19:25:07;95689.38;;;21.37;77.98
56600;BME280;51832;48.152;11.530;2022-08-20T19:30:08;95692.16;;;20.92;79.55
56600;BME280;51832;48.152;11.530;2022-08-20T19:35:16;95686.88;;;21.16;78.62
56600;BME280;51832;48.152;11.530;2022-08-20T19:40:23;95682.66;;;21.10;78.67
56600;BME280;51832;48.152;11.530;2022-08-20T19:45:41;95686.22;;;21.01;78.65
56600;BME280;51832;48.152;11.530;2022-08-20T19:50:49;95682.66;;;21.10;78.05
56600;BME280;51832;48.152;11.530;2022-08-20T20:01:03;95662.09;;;21.06;78.22
56600;BME280;51832;48.152;11.530;2022-08-20T20:06:17;95679.97;;;20.81;79.48
56600;BME280;51832;48.152;11.530;2022-08-20T20:11:24;95674.16;;;20.74;79.37
56600;BME280;51832;48.152;11.530;2022-08-20T20:16:29;95672.00;;;20.76;79.19
56600;BME280;51832;48.152;11.530;2022-08-20T20:21:39;95660.66;;;20.89;78.83
56600;BME280;51832;48.152;11.530;2022-08-20T20:26:40;95651.81;;;21.18;77.45
56600;BME280;51832;48.152;11.530;2022-08-20T20:31:56;95659.38;;;20.82;78.37
56600;BME280;51832;48.152;11.530;2022-08-20T20:37:08;95661.34;;;20.71;78.81
56600;BME280;51832;48.152;11.530;2022-08-20T20:42:26;95658.78;;;20.90;77.72
56600;BME280;51832;48.152;11.530;2022-08-20T20:47:30;95658.31;;;20.78;78.09
56600;BME280;51832;48.152;11.530;2022-08-20T20:52:53;95653.44;;;20.56;79.22
56600;BME280;51832;48.152;11.530;2022-08-20T20:57:55;95657.41;;;20.19;80.29
56600;BME280;51832;48.152;11.530;2022-08-20T21:02:55;95657.69;;;20.57;78.47
56600;BME280;51832;48.152;11.530;2022-08-20T21:08:02;95656.91;;;20.90;77.05
56600;BME280;51832;48.152;11.530;2022-08-20T21:13:04;95650.28;;;20.49;78.24
56600;BME280;51832;48.152;11.530;2022-08-20T21:18:07;95654.50;;;20.55;78.05
56600;BME280;51832;48.152;11.530;2022-08-20T21:23:08;95655.16;;;20.76;77.38
56600;BME280;51832;48.152;11.530;2022-08-20T21:28:09;95655.84;;;20.52;78.11
56600;BME280;51832;48.152;11.530;2022-08-20T21:33:09;95659.59;;;20.51;77.98
56600;BME280;51832;48.152;11.530;2022-08-20T21:38:10;95660.22;;;20.43;78.18
56600;BME280;51832;48.152;11.530;2022-08-20T21:43:10;95663.72;;;20.34;78.86
56600;BME280;51832;48.152;11.530;2022-08-20T21:48:10;95661.06;;;20.34;79.05
56600;BME280;51832;48.152;11.530;2022-08-20T21:53:11;95665.34;;;20.30;78.82
56600;BME280;51832;48.152;11.530;2022-08-20T21:58:12;95671.72;;;20.39;78.51
56600;BME280;51832;48.152;11.530;2022-08-20T22:03:14;95660.13;;;20.09;79.38
56600;BME280;51832;48.152;11.530;2022-08-20T22:08:15;95644.75;;;20.35;78.42
56600;BME280;51832;48.152;11.530;2022-08-20T22:13:16;95647.88;;;20.03;80.22
56600;BME280;51832;48.152;11.530;2022-08-20T22:18:16;95663.75;;;20.29;78.91
56600;BME280;51832;48.152;11.530;2022-08-20T22:23:17;95655.75;;;20.29;79.12
56600;BME280;51832;48.152;11.530;2022-08-20T22:28:18;95639.88;;;20.03;80.14
56600;BME280;51832;48.152;11.530;2022-08-20T22:33:21;95637.91;;;19.70;82.01
56600;BME280;51832;48.152;11.530;2022-08-20T22:38:22;95647.88;;;20.08;80.31
56600;BME280;51832;48.152;11.530;2022-08-20T22:43:23;95644.88;;;20.15;79.76
56600;BME280;51832;48.152;11.530;2022-08-20T22:48:24;95644.66;;;20.06;80.27
56600;BME280;51832;48.152;11.530;2022-08-20T22:53:26;95644.09;;;20.09;80.42
56600;BME280;51832;48.152;11.530;2022-08-20T22:58:26;95643.34;;;20.04;80.25
56600;BME280;51832;48.152;11.530;2022-08-20T23:03:27;95648.22;;;19.92;80.68
56600;BME280;51832;48.152;11.530;2022-08-20T23:08:28;95642.44;;;20.18;79.74
56600;BME280;51832;48.152;11.530;2022-08-20T23:13:29;95638.69;;;19.70;81.70
56600;BME280;51832;48.152;11.530;2022-08-20T23:18:29;95632.47;;;19.90;81.09
56600;BME280;51832;48.152;11.530;2022-08-20T23:23:30;95629.28;;;19.83;81.01
56600;BME280;51832;48.152;11.530;2022-08-20T23:28:31;95624.34;;;19.61;82.20
56600;BME280;51832;48.152;11.530;2022-08-20T23:33:32;95625.34;;;19.75;81.55
56600;BME280;51832;48.152;11.530;2022-08-20T23:38:32;95619.56;;;20.02;80.27
56600;BME280;51832;48.152;11.530;2022-08-20T23:43:33;95617.53;;;19.84;80.73
56600;BME280;51832;48.152;11.530;2022-08-20T23:48:33;95622.25;;;19.53;82.24
56600;BME280;51832;48.152;11.530;2022-08-20T23:53:35;95611.47;;;19.73;80.84
56600;BME280;51832;48.152;11.530;2022-08-20T23:58:36;95606.03;;;19.88;79.85
